createdAt,value
2018-08-16T00:00:00.995Z,28.2
2018-08-16T00:05:00.928Z,29.5
2018-08-16T00:10:00.931Z,30.5
2018-08-16T00:15:00.930Z,30.4
2018-08-16T00:20:01.014Z,29.5
2018-08-16T00:25:00.936Z,28.8
2018-08-16T00:30:01.019Z,27.8
2018-08-16T00:35:01.963Z,26.7
2018-08-16T00:40:01.085Z,25.7
2018-08-16T00:45:00.933Z,25.9
2018-08-16T00:50:00.947Z,26.7
2018-08-16T00:55:00.946Z,28.2
2018-08-16T01:00:01.004Z,30.8
2018-08-16T01:05:00.909Z,33.5
2018-08-16T01:10:00.977Z,35.6
2018-08-16T01:15:00.920Z,37.2
2018-08-16T01:20:00.974Z,38.4
2018-08-16T01:25:00.928Z,39.1
2018-08-16T01:30:00.917Z,40.0
2018-08-16T01:35:00.921Z,40.6
2018-08-16T01:40:00.989Z,41.2
2018-08-16T01:45:00.923Z,42.0
2018-08-16T01:50:00.920Z,42.2
2018-08-16T01:55:00.952Z,42.6
2018-08-16T02:00:01.085Z,43.1
2018-08-16T02:05:01.024Z,43.5
2018-08-16T02:10:00.971Z,44.1
2018-08-16T02:15:00.966Z,44.7
2018-08-16T02:20:01.107Z,44.9
2018-08-16T02:25:01.040Z,45.4
2018-08-16T02:30:01.223Z,46.0
2018-08-16T02:35:01.016Z,45.8
2018-08-16T02:40:01.028Z,46.3
2018-08-16T02:45:00.979Z,46.8
2018-08-16T02:50:00.996Z,46.5
2018-08-16T02:55:00.948Z,46.2
2018-08-16T03:00:00.941Z,46.2
2018-08-16T03:05:00.948Z,46.1
2018-08-16T03:10:00.944Z,45.5
2018-08-16T03:15:00.948Z,45.6
2018-08-16T03:20:01.012Z,45.6
2018-08-16T03:25:00.950Z,45.8
2018-08-16T03:30:01.015Z,45.7
2018-08-16T03:35:00.961Z,46.1
2018-08-16T03:40:01.092Z,46.0
2018-08-16T03:45:00.958Z,46.0
2018-08-16T03:50:01.284Z,45.4
2018-08-16T03:55:00.963Z,45.6
2018-08-16T04:00:01.022Z,45.3
2018-08-16T04:05:00.964Z,45.2
2018-08-16T04:10:01.094Z,45.4
2018-08-16T04:15:00.935Z,45.5
2018-08-16T04:20:01.323Z,44.9
2018-08-16T04:25:00.966Z,45.2
2018-08-16T04:30:01.034Z,45.3
2018-08-16T04:35:01.160Z,44.6
2018-08-16T04:45:01.034Z,45.5
2018-08-16T04:50:01.105Z,45.6
2018-08-16T04:55:01.003Z,45.6
2018-08-16T05:00:01.064Z,46.0
2018-08-16T05:05:01.006Z,45.8
2018-08-16T05:10:01.144Z,45.5
2018-08-16T05:15:01.011Z,45.3
2018-08-16T05:20:01.076Z,45.2
2018-08-16T05:25:01.017Z,44.8
2018-08-16T05:30:01.083Z,44.6
2018-08-16T05:35:01.019Z,44.5
2018-08-16T05:40:01.088Z,44.3
2018-08-16T05:45:01.022Z,44.3
2018-08-16T05:50:01.114Z,44.6
2018-08-16T05:55:01.011Z,45.1
2018-08-16T06:00:01.116Z,45.3
2018-08-16T06:05:01.001Z,45.7
2018-08-16T06:10:01.320Z,46.0
2018-08-16T06:15:01.374Z,46.1
2018-08-16T06:20:01.193Z,45.6
2018-08-16T06:25:01.135Z,45.4
2018-08-16T06:30:00.999Z,45.1
2018-08-16T06:35:01.066Z,45.2
2018-08-16T06:40:01.088Z,45.1
2018-08-16T06:45:01.029Z,45.2
2018-08-16T06:50:01.076Z,45.2
2018-08-16T06:55:01.009Z,45.4
2018-08-16T07:00:01.098Z,45.2
2018-08-16T07:05:01.291Z,44.9
2018-08-16T07:10:01.209Z,44.3
2018-08-16T07:15:01.014Z,43.8
2018-08-16T07:20:01.081Z,43.6
2018-08-16T07:25:01.012Z,43.0
2018-08-16T07:30:01.402Z,43.1
2018-08-16T07:35:01.042Z,43.3
2018-08-16T07:40:01.114Z,43.6
2018-08-16T07:45:01.080Z,43.5
2018-08-16T07:50:01.116Z,44.2
2018-08-16T07:55:01.055Z,44.5
2018-08-16T08:00:01.133Z,44.6
2018-08-16T08:05:01.052Z,44.4
2018-08-16T08:10:01.128Z,43.2
2018-08-16T08:15:01.332Z,41.0
2018-08-16T08:20:01.135Z,38.7
2018-08-16T08:25:01.059Z,37.0
2018-08-16T08:30:01.232Z,35.6
2018-08-16T08:35:01.042Z,35.3
2018-08-16T08:40:01.185Z,35.9
2018-08-16T08:45:01.044Z,36.5
2018-08-16T08:50:01.117Z,37.0
2018-08-16T08:55:01.112Z,37.0
2018-08-16T09:10:00.661Z,33.4
2018-08-16T09:30:01.088Z,30.8
2018-08-16T09:50:01.270Z,31.0
2018-08-16T09:55:01.230Z,31.9
2018-08-16T10:00:01.360Z,31.4
2018-08-16T10:05:01.228Z,30.4
2018-08-16T10:10:01.313Z,30.1
2018-08-16T10:15:01.204Z,28.7
2018-08-16T10:20:01.305Z,27.2
2018-08-16T10:25:01.209Z,26.8
2018-08-16T10:30:01.354Z,26.6
2018-08-16T10:35:01.255Z,25.7
2018-08-16T10:40:01.258Z,26.0
2018-08-16T10:45:01.333Z,24.9
2018-08-16T10:50:01.281Z,23.2
2018-08-16T10:55:01.222Z,22.2
2018-08-16T11:00:06.461Z,21.4
2018-08-16T11:05:01.228Z,20.0
2018-08-16T11:10:01.357Z,19.7
2018-08-16T11:15:01.228Z,20.1
2018-08-16T11:20:01.309Z,20.2
2018-08-16T11:25:01.237Z,20.5
2018-08-16T11:30:01.307Z,21.9
2018-08-16T11:35:01.346Z,22.8
2018-08-16T11:40:01.376Z,23.4
2018-08-16T11:45:01.279Z,23.5
2018-08-16T11:50:01.316Z,23.5
2018-08-16T11:55:01.240Z,23.3
2018-08-16T12:00:01.303Z,23.0
2018-08-16T12:05:01.245Z,23.1
2018-08-16T12:10:06.282Z,23.7
2018-08-16T12:15:01.340Z,23.8
2018-08-16T12:20:06.252Z,23.8
2018-08-16T12:25:06.260Z,24.8
2018-08-16T12:30:06.325Z,24.6
2018-08-16T12:35:01.625Z,24.3
2018-08-16T12:40:01.310Z,24.7
2018-08-16T12:45:01.428Z,24.6
2018-08-16T12:50:01.333Z,23.9
2018-08-16T12:55:01.241Z,24.2
2018-08-16T13:00:01.447Z,24.6
2018-08-16T13:05:01.257Z,24.4
2018-08-16T13:10:01.246Z,24.3
2018-08-16T13:15:01.411Z,24.0
2018-08-16T13:20:01.365Z,24.3
2018-08-16T13:25:01.247Z,23.9
2018-08-16T13:30:01.476Z,24.2
2018-08-16T13:35:01.260Z,24.0
2018-08-16T13:40:01.317Z,24.3
2018-08-16T13:45:01.450Z,23.4
2018-08-16T13:50:01.312Z,23.6
2018-08-16T13:55:01.462Z,23.6
2018-08-16T14:00:06.384Z,23.2
2018-08-16T14:05:01.260Z,23.0
2018-08-16T14:10:01.312Z,23.6
2018-08-16T14:15:01.258Z,22.6
2018-08-16T14:20:01.319Z,22.0
2018-08-16T14:25:01.236Z,22.3
2018-08-16T14:30:01.312Z,22.7
2018-08-16T14:35:01.242Z,22.1
2018-08-16T14:40:06.243Z,23.2
2018-08-16T14:45:01.269Z,23.4
2018-08-16T14:50:06.289Z,23.8
2018-08-16T14:55:01.250Z,24.2
2018-08-16T15:00:01.317Z,25.2
2018-08-16T15:05:06.256Z,24.5
2018-08-16T15:10:02.369Z,24.7
2018-08-16T15:16:01.242Z,24.8
2018-08-16T15:21:01.241Z,24.5
2018-08-16T15:26:01.247Z,23.9
2018-08-16T15:31:01.279Z,25.3
2018-08-16T15:36:01.325Z,25.1
2018-08-16T15:41:01.638Z,25.3
2018-08-16T15:46:01.369Z,25.4
2018-08-16T15:51:01.291Z,25.8
2018-08-16T15:56:06.253Z,24.8
2018-08-16T16:01:06.379Z,25.1
2018-08-16T16:06:01.547Z,24.2
2018-08-16T16:11:01.297Z,23.1
2018-08-16T16:16:01.291Z,22.5
2018-08-16T16:21:01.272Z,22.2
2018-08-16T16:26:06.260Z,21.7
2018-08-16T16:31:01.278Z,22.2
2018-08-16T16:36:06.250Z,22.3
2018-08-16T16:41:06.243Z,21.7
2018-08-16T16:46:06.305Z,21.0
2018-08-16T16:51:06.252Z,20.6
2018-08-16T16:56:06.282Z,19.8
2018-08-16T17:01:01.363Z,19.3
2018-08-16T17:06:01.270Z,18.6
2018-08-16T17:11:01.321Z,18.7
2018-08-16T17:16:01.266Z,18.4
2018-08-16T17:21:01.253Z,18.7
2018-08-16T17:26:01.449Z,18.6
2018-08-16T17:32:01.504Z,18.6
2018-08-16T17:37:01.242Z,18.0
2018-08-16T17:47:01.311Z,17.3
2018-08-16T17:52:01.361Z,16.9
2018-08-16T17:57:01.259Z,16.5
2018-08-16T18:02:01.330Z,16.5
2018-08-16T18:07:01.245Z,15.8
2018-08-16T18:12:01.241Z,15.9
2018-08-16T18:17:01.273Z,16.1
2018-08-16T18:22:01.369Z,15.9
2018-08-16T18:27:01.241Z,15.5
2018-08-16T18:32:01.251Z,15.4
2018-08-16T18:37:01.317Z,15.2
2018-08-16T18:42:01.249Z,15.0
2018-08-16T18:47:01.335Z,15.4
2018-08-16T18:52:01.312Z,16.2
2018-08-16T18:57:01.255Z,16.6
2018-08-16T19:02:01.239Z,16.8
2018-08-16T19:07:01.242Z,17.2
2018-08-16T19:12:01.472Z,18.0
2018-08-16T19:22:01.444Z,18.1
2018-08-16T19:27:01.246Z,17.5
2018-08-16T19:32:01.387Z,17.3
2018-08-16T19:37:01.246Z,16.8
2018-08-16T19:42:01.249Z,17.2
2018-08-16T19:47:01.256Z,17.8
2018-08-16T19:52:01.254Z,18.9
2018-08-16T19:58:01.426Z,19.3
2018-08-16T20:03:01.574Z,19.5
2018-08-16T20:13:06.398Z,19.2
2018-08-16T20:18:01.355Z,20.3
2018-08-16T20:23:06.323Z,21.2
2018-08-16T20:28:01.284Z,22.3
2018-08-16T20:33:01.409Z,22.4
2018-08-16T20:38:01.273Z,23.6
2018-08-16T20:43:06.246Z,23.4
2018-08-16T20:48:06.254Z,24.2
2018-08-16T20:53:01.337Z,24.7
2018-08-16T20:58:01.275Z,25.0
2018-08-16T21:03:06.259Z,25.1
2018-08-16T21:08:06.259Z,25.3
2018-08-16T21:13:01.371Z,24.6
2018-08-16T21:18:06.245Z,24.6
2018-08-16T21:23:01.399Z,25.4
2018-08-16T21:28:01.276Z,25.8
2018-08-16T21:33:06.381Z,26.6
2018-08-16T21:38:01.286Z,26.8
2018-08-16T21:43:01.402Z,27.2
2018-08-16T21:48:06.249Z,27.8
2018-08-16T21:53:06.384Z,28.6
2018-08-16T21:58:06.260Z,28.7
2018-08-16T22:03:01.340Z,29.7
2018-08-16T22:08:06.265Z,30.3
2018-08-16T22:20:00.531Z,32.0
2018-08-16T22:25:00.460Z,30.3
2018-08-16T22:30:00.492Z,29.9
2018-08-16T22:35:00.455Z,29.9
2018-08-16T22:40:00.516Z,29.4
2018-08-16T22:45:00.459Z,29.0
2018-08-16T22:50:00.455Z,29.2
2018-08-16T22:55:00.459Z,29.2
2018-08-16T23:00:00.521Z,28.4
2018-08-16T23:05:00.553Z,28.6
2018-08-16T23:10:00.520Z,28.1
2018-08-16T23:15:00.518Z,27.6
2018-08-16T23:20:00.594Z,27.2
2018-08-16T23:25:00.520Z,26.5
2018-08-16T23:30:00.582Z,25.7
2018-08-16T23:35:00.516Z,25.2
2018-08-16T23:40:00.594Z,24.4
2018-08-16T23:45:00.506Z,23.6
2018-08-16T23:50:00.506Z,23.8
2018-08-16T23:55:00.508Z,22.8
